SILO ALERT LOG
| Silo ID | Alert Type | Alert Message | Silo Type | Points | Depth (mm) | Strength | Temperature (°C) | Humidity (%) | Height (mm) | Volume (㎥) | Weight (t) | Flag | Time |
|---|---|---|---|---|---|---|---|---|---|---|---|---|---|
| WJWJR05 | Humidity | 습도센서 측정값이 80% 초과 | 평 | 58 | 7820 | 2472 | 24.9 | 88.8 | -100 | -11.31 | 0 | 0 | 2026-08-31 05:25:47.000 |
| WJWJR01 | Humidity | 습도센서 측정값이 80% 초과 | 평 | 83 | 7710 | 1081 | 25 | 89.8 | -70 | -7.917 | 0 | 0 | 2026-08-31 01:26:00.000 |
| WJWJR05 | Humidity | 습도센서 측정값이 80% 초과 | 평 | 56 | 7780 | 2469 | 25.6 | 87.1 | -60 | -6.786 | 0 | 0 | 2026-08-31 01:25:43.000 |
| WJWJR01 | Humidity | 습도센서 측정값이 80% 초과 | 평 | 77 | 7690 | 1105 | 26.4 | 85.1 | -50 | -5.655 | 0 | 0 | 2026-08-30 21:25:59.000 |
| WJWJR05 | Humidity | 습도센서 측정값이 80% 초과 | 평 | 54 | 7790 | 2487 | 27 | 83.1 | -70 | -7.917 | 0 | 0 | 2026-08-30 21:25:47.000 |
| WJWJR05 | Humidity | 습도센서 측정값이 80% 초과 | 평 | 58 | 7560 | 2505 | 28.7 | 84 | 160 | 18.096 | 11.44 | 0 | 2026-08-30 13:25:47.000 |
| WJWJR01 | Humidity | 습도센서 측정값이 80% 초과 | 평 | 77 | 7690 | 1061 | 25.8 | 89.9 | -50 | -5.655 | 0 | 0 | 2026-08-30 09:26:03.000 |
| WJWJR05 | Humidity | 습도센서 측정값이 80% 초과 | 평 | 59 | 7780 | 2471 | 25.8 | 91.2 | -60 | -6.786 | 0 | 0 | 2026-08-30 09:25:40.000 |
| WJWJR01 | Humidity | 습도센서 측정값이 80% 초과 | 평 | 77 | 7680 | 1112 | 24.5 | 91.9 | -40 | -4.524 | 0 | 0 | 2026-08-30 05:26:05.000 |
| WJWJR05 | Humidity | 습도센서 측정값이 80% 초과 | 평 | 56 | 7620 | 2465 | 25 | 89.4 | 99 | 11.31 | 7.15 | 0 | 2026-08-30 05:25:47.000 |
| WJWJR01 | Humidity | 습도센서 측정값이 80% 초과 | 평 | 73 | 7710 | 1088 | 25.4 | 89.7 | -70 | -7.917 | 0 | 0 | 2026-08-30 01:26:01.000 |
| WJWJR05 | Humidity | 습도센서 측정값이 80% 초과 | 평 | 47 | 7950 | 2486 | 26 | 87.3 | -230 | -26.012 | 0 | 0 | 2026-08-30 01:25:43.000 |
| WJWJR01 | Humidity | 습도센서 측정값이 80% 초과 | 평 | 74 | 7690 | 1075 | 27.1 | 84.4 | -50 | -5.655 | 0 | 0 | 2026-08-29 21:26:02.000 |
| WJWJR05 | Humidity | 습도센서 측정값이 80% 초과 | 평 | 58 | 7640 | 2489 | 27.7 | 83.7 | 80 | 9.048 | 5.72 | 0 | 2026-08-29 21:25:47.000 |
| WJWJR05 | Humidity | 습도센서 측정값이 80% 초과 | 평 | 57 | 7770 | 2467 | 30 | 80.5 | -49 | -5.655 | 0 | 0 | 2026-08-29 17:25:42.000 |
| WJWJR01 | Humidity | 습도센서 측정값이 80% 초과 | 평 | 73 | 7660 | 1070 | 29.2 | 84.4 | -20 | -2.262 | 0 | 0 | 2026-08-29 13:26:00.000 |
| WJWJR05 | Humidity | 습도센서 측정값이 80% 초과 | 평 | 56 | 7770 | 2500 | 28.9 | 89.2 | -49 | -5.655 | 0 | 0 | 2026-08-29 13:25:41.000 |
| WJWJR01 | Humidity | 습도센서 측정값이 80% 초과 | 평 | 77 | 7700 | 1064 | 24.5 | 94 | -60 | -6.786 | 0 | 0 | 2026-08-29 09:26:01.000 |
| WJWJR05 | Humidity | 습도센서 측정값이 80% 초과 | 평 | 54 | 7430 | 2482 | 24.7 | 91.3 | 290 | 32.798 | 20.735 | 0 | 2026-08-29 09:25:44.000 |
| WJWJR01 | Humidity | 습도센서 측정값이 80% 초과 | 평 | 76 | 7660 | 1110 | 23.4 | 93.5 | -20 | -2.262 | 0 | 0 | 2026-08-29 05:26:02.000 |
[첫 페이지] [1] [2] 3 [4] [5] [6] [7] [마지막 페이지]